Llwyngwril, United Kingdom
Current Conditions -  °F | °C
As of 1:50 AM on Thursday 18 Dec 2014 (Local Time) from EGOV Reporting Station
Broken Clouds Broken Clouds  
Wind Chill: 54°   Ceiling: 4000
Heat Index: 54°   Visibility: 6mi
Dew Point: 52°   Wind: 22mph
Humidity: 94%   Direction: 210°SSW
Pressure: 29.68"   Gusts: NA
Location:  52.67°N, 4.08°W
Report Text: EGOV 180150Z 21019KT 9999 FEW007 BKN040 BKN060 12/11 Q1005 BLU
Loading
Personal Weather Stations






























Interactive Weather Map New forecast layout! Learn more

10-Day Weather Forecast

Advertisements
Track Severe Weather on mobile